KELNKPUW

Guest
Details From KELN - BOWERS FLD
To KPUW - Pullman Moscow Rgnl
Flight Number -
Tags generated
Created
Modified
Stats Distance 141 nm / 262 km
Max Altitude 17,200 ft / 5,243 m
Waypoints 3
Social Downloads 0
Likes 0
Share VATSIM

Download

Looking for another format? Having issues loading an existing format? Contact us
Advertisement - Login to hide

Notes

Basic altitude profile: - Ascent Rate: 1000ft/min - Ascent Speed: 100kts - Cruise Altitude: 13500ft - Cruise Speed: 160kts - Descent Rate: 1500ft/min - Descent Speed: 150kts Options: - Use NATs: no - Use PACOTS: no - Use low airways: yes - Use high airways: no

Route

KELN UPBOB KPUW

ID Type Via Altitude Latitude Longitude Leg Dist Tot Dist Heading (true) Name
O KELN APT - 0 ft / 0 m 47.03324˚ -120.53048˚ - 0 nm - BOWERS FLD
UPBOB FIX - 17,200 ft / 5,243 m 46.92953˚ -119.05558˚ 60 nm 60 nm 95° / 96° -
O KPUW APT - 0 ft / 0 m 46.74386˚ -117.10959˚ 80 nm 141 nm 97° / 99° Pullman Moscow Rgnl

Altitude Profile

Advertisement - Login to hide

KELN

Details ICAO KELN
Name BOWERS FLD
Region United States
Timezone America/Los_Angeles (UTC-8.0)
Stats Elevation 1,763 ft / 537 m (AMSL)
Location 47.033240° -120.530484°
Runways 2
Magnetic Variation 15.222° E

METAR

KELN 182253Z AUTO 31018KT 10SM BKN060 07/01 A3004 RMK AO2 PK WND 31031/2156 SLP181 T00720011

Decode

TAF

Not found

Departure Runways

ID Width Length Bearing (true) Bearing (mag) Surface Threshold Offset Overrun Length
07 150 ft / 46 m 5,574 ft / 1,699 m 87.93° 72.71° Asphalt 0 ft / 0 m 0 ft / 0 m
11 150 ft / 46 m 4,295 ft / 1,309 m 133.07° 117.85° Concrete 0 ft / 0 m 0 ft / 0 m
25 150 ft / 46 m 5,574 ft / 1,699 m 267.94° 252.72° Asphalt 0 ft / 0 m 0 ft / 0 m
29 150 ft / 46 m 4,295 ft / 1,309 m 313.08° 297.86° Concrete 0 ft / 0 m 0 ft / 0 m

KPUW

Details ICAO KPUW (PUW)
Name Pullman Moscow Rgnl
Region United States
Timezone America/Los_Angeles (UTC-8.0)
Stats Elevation 2,556 ft / 779 m (AMSL)
Location 46.743856° -117.109587°
Runways 1
Magnetic Variation 14.273° E

METAR

KPUW 182253Z AUTO 26009KT 10SM BKN027 BKN037 OVC055 06/02 A3004 RMK AO2 SLP187 T00610022

Decode

TAF

KPUW 181739Z 1818/1918 23017G25KT P6SM VCSH BKN035 OVC060 FM190000 24010G17KT P6SM -SHRA BKN040 OVC060 FM190300 21010KT P6SM -RA BKN025 OVC040 FM190900 18012KT P6SM -RA OVC035 FM191600 14012KT P6SM -SHRA SCT035 OVC050

Decode

Destination Runways

ID Width Length Bearing (true) Bearing (mag) Surface Threshold Offset Overrun Length
05 100 ft / 30 m 6,714 ft / 2,046 m 70.05° 55.78° Asphalt 290 ft / 88 m 0 ft / 0 m
23 100 ft / 30 m 6,714 ft / 2,046 m 250.07° 235.80° Asphalt 801 ft / 244 m 0 ft / 0 m

Popular Alternatives